createdAt,value
2023-09-19T00:00:50.129Z,95700.84
2023-09-19T00:03:18.096Z,95702.75
2023-09-19T00:05:46.635Z,95700.56
2023-09-19T00:08:16.832Z,95698.34
2023-09-19T00:10:45.398Z,95706.00
2023-09-19T00:13:16.740Z,95716.03
2023-09-19T00:15:52.061Z,95713.84
2023-09-19T00:18:23.750Z,95703.44
2023-09-19T00:20:53.511Z,95715.44
2023-09-19T00:23:21.414Z,95707.72
2023-09-19T00:25:49.747Z,95713.44
2023-09-19T00:28:18.390Z,95724.31
2023-09-19T00:30:46.383Z,95733.81
2023-09-19T00:33:17.893Z,95741.25
2023-09-19T00:35:50.174Z,95749.53
2023-09-19T00:38:18.373Z,95743.34
2023-09-19T00:40:47.104Z,95738.22
2023-09-19T00:43:14.101Z,95741.84
2023-09-19T00:45:43.886Z,95736.47
2023-09-19T00:48:11.306Z,95741.97
2023-09-19T00:50:44.952Z,95735.22
2023-09-19T00:53:19.845Z,95743.41
2023-09-19T00:55:47.560Z,95732.78
2023-09-19T00:58:14.559Z,95745.28
2023-09-19T01:00:41.733Z,95743.38
2023-09-19T01:03:08.824Z,95740.91
2023-09-19T01:05:35.840Z,95746.38
2023-09-19T01:08:03.219Z,95752.41
2023-09-19T01:10:30.237Z,95743.69
2023-09-19T01:13:20.882Z,95743.41
2023-09-19T01:16:13.452Z,95731.72
2023-09-19T01:18:54.441Z,95739.66
2023-09-19T01:21:35.690Z,95738.56
2023-09-19T01:24:41.571Z,95744.31
2023-09-19T01:27:35.007Z,95744.88
2023-09-19T01:30:23.707Z,95738.88
2023-09-19T01:32:53.763Z,95738.31
2023-09-19T01:35:20.803Z,95740.47
2023-09-19T01:37:47.720Z,95738.31
2023-09-19T01:40:20.705Z,95740.53
2023-09-19T01:43:43.977Z,95732.28
2023-09-19T01:46:31.650Z,95729.56
2023-09-19T01:49:03.661Z,95737.50
2023-09-19T01:52:07.730Z,95739.66
2023-09-19T01:54:39.484Z,95740.22
2023-09-19T01:57:16.021Z,95737.50
2023-09-19T01:59:55.596Z,95739.13
2023-09-19T02:02:24.037Z,95733.66
2023-09-19T02:04:51.788Z,95733.63
2023-09-19T02:07:18.845Z,95736.38
2023-09-19T02:09:45.750Z,95747.56
2023-09-19T02:12:12.693Z,95749.22
2023-09-19T02:14:39.611Z,95750.31
2023-09-19T02:17:08.438Z,95750.31
2023-09-19T02:19:35.571Z,95745.69
2023-09-19T02:22:08.889Z,95751.94
2023-09-19T02:24:36.525Z,95751.13
2023-09-19T02:27:05.534Z,95761.25
2023-09-19T02:29:32.813Z,95759.03
2023-09-19T02:32:00.305Z,95754.94
2023-09-19T02:34:27.798Z,95765.03
2023-09-19T02:36:57.278Z,95763.13
2023-09-19T02:39:25.135Z,95756.84
2023-09-19T02:41:52.101Z,95754.63
2023-09-19T02:44:20.794Z,95754.06
2023-09-19T02:46:48.639Z,95760.63
2023-09-19T02:49:15.914Z,95761.72
2023-09-19T02:51:42.891Z,95759.53
2023-09-19T02:54:10.008Z,95757.91
2023-09-19T02:56:38.396Z,95748.66
2023-09-19T02:59:05.621Z,95753.81
2023-09-19T03:01:33.524Z,95748.16
2023-09-19T03:04:00.788Z,95749.22
2023-09-19T03:06:27.850Z,95751.72
2023-09-19T03:08:54.865Z,95752.53
2023-09-19T03:11:24.448Z,95752.25
2023-09-19T03:13:54.771Z,95753.13
2023-09-19T03:16:23.403Z,95751.44
2023-09-19T03:18:50.560Z,95753.63
2023-09-19T03:21:18.520Z,95748.47
2023-09-19T03:23:48.124Z,95753.63
2023-09-19T03:26:17.799Z,95751.50
2023-09-19T03:28:44.952Z,95756.94
2023-09-19T03:31:12.475Z,95751.50
2023-09-19T03:33:40.541Z,95756.94
2023-09-19T03:36:08.435Z,95755.28
2023-09-19T03:38:35.775Z,95747.09
2023-09-19T03:41:03.738Z,95756.09
2023-09-19T03:43:30.833Z,95763.22
2023-09-19T03:45:57.939Z,95756.09
2023-09-19T03:48:25.191Z,95751.50
2023-09-19T03:50:53.832Z,95758.28
2023-09-19T03:53:20.825Z,95759.09
2023-09-19T03:55:48.119Z,95757.47
2023-09-19T03:58:15.185Z,95761.81
2023-09-19T21:01:06.648Z,95790.03
2023-09-19T21:03:37.062Z,95792.75
2023-09-19T21:06:09.846Z,95796.56
2023-09-19T21:08:37.024Z,95797.41
2023-09-19T21:11:17.684Z,95791.16
2023-09-19T21:13:46.195Z,95792.81
2023-09-19T21:16:16.404Z,95787.06
2023-09-19T21:18:45.064Z,95785.16
2023-09-19T21:21:12.689Z,95791.44
2023-09-19T21:23:40.939Z,95791.44
2023-09-19T21:26:08.972Z,95795.25
2023-09-19T21:28:36.262Z,95799.09
2023-09-19T21:31:05.455Z,95801.81
2023-09-19T21:33:39.413Z,95795.78
2023-09-19T21:36:21.955Z,95797.41
2023-09-19T21:38:49.509Z,95791.69
2023-09-19T21:41:18.276Z,95794.44
2023-09-19T21:43:46.288Z,95789.00
2023-09-19T21:46:13.555Z,95799.06
2023-09-19T21:48:41.820Z,95793.63
2023-09-19T21:51:09.242Z,95786.50
2023-09-19T21:53:37.341Z,95784.88
2023-09-19T21:56:06.658Z,95785.41
2023-09-19T21:58:36.982Z,95785.94
2023-09-19T22:01:07.940Z,95783.22
2023-09-19T22:03:37.749Z,95781.00
2023-09-19T22:06:09.274Z,95775.22
2023-09-19T22:08:37.311Z,95781.47
2023-09-19T22:11:04.652Z,95782.00
2023-09-19T22:13:32.238Z,95784.19
2023-09-19T22:16:00.660Z,95782.03
2023-09-19T22:18:29.157Z,95780.13
2023-09-19T22:21:04.048Z,95777.19
2023-09-19T22:23:37.119Z,95774.38
2023-09-19T22:26:04.946Z,95772.16
2023-09-19T22:28:36.414Z,95764.84
2023-09-19T22:31:13.688Z,95768.66
2023-09-19T22:33:41.794Z,95763.00
2023-09-19T22:36:09.407Z,95757.88
2023-09-19T22:38:36.345Z,95751.03
2023-09-19T22:41:07.288Z,95755.34
2023-09-19T22:43:35.622Z,95756.16
2023-09-19T22:46:08.220Z,95759.41
2023-09-19T22:48:35.312Z,95754.22
2023-09-19T22:51:07.329Z,95757.78
2023-09-19T22:53:36.972Z,95758.63
2023-09-19T22:56:12.254Z,95757.53
2023-09-19T22:58:43.556Z,95758.38
2023-09-19T23:01:28.678Z,95757.59
2023-09-19T23:04:11.552Z,95755.97
2023-09-19T23:06:49.498Z,95754.91
2023-09-19T23:09:24.589Z,95754.63
2023-09-19T23:12:07.892Z,95757.88
2023-09-19T23:14:40.244Z,95759.22
2023-09-19T23:17:23.016Z,95761.41
2023-09-19T23:19:51.052Z,95749.09
2023-09-19T23:22:18.138Z,95746.94
2023-09-19T23:24:51.374Z,95745.56
2023-09-19T23:27:26.819Z,95747.16
2023-09-19T23:29:56.563Z,95741.47
2023-09-19T23:32:23.675Z,95744.72
2023-09-19T23:34:50.962Z,95743.91
2023-09-19T23:37:21.798Z,95747.16
2023-09-19T23:39:48.978Z,95744.38
2023-09-19T23:42:16.141Z,95744.34
2023-09-19T23:44:43.534Z,95744.34
2023-09-19T23:47:12.044Z,95734.03
2023-09-19T23:49:42.702Z,95733.50
2023-09-19T23:52:12.639Z,95738.44
2023-09-19T23:54:41.902Z,95746.34
2023-09-19T23:57:11.367Z,95744.66
2023-09-19T23:59:44.146Z,95737.81
